Time;durP1;ratioP1;P1;durP2;ratioP2;P2;SDS_P1;SDS_P2;PMS_P1;PMS_P2;Temp;Humidity;BMP_temperature;BMP_pressure;BME280_temperature;BME280_humidity;BME280_pressure;Samples;Min_cycle;Max_cycle;Signal;HPM_P1;HPM_P2
2023/02/04 00:01:26;;;;;;;36.17;4.45;;;6.50;99.90;;;;;;5085476;28;20362;-82
2023/02/04 00:03:52;;;;;;;18.55;3.67;;;6.60;99.90;;;;;;5047193;28;20483;-81
2023/02/04 00:06:17;;;;;;;23.20;3.33;;;6.50;99.90;;;;;;5071109;28;20040;-81
2023/02/04 00:08:43;;;;;;;29.58;4.20;;;6.40;99.90;;;;;;5071523;28;20032;-81
2023/02/04 00:11:08;;;;;;;25.73;3.83;;;6.30;99.90;;;;;;5061512;28;20035;-82
2023/02/04 00:13:34;;;;;;;33.55;4.13;;;6.40;99.90;;;;;;5082095;28;20106;-82
2023/02/04 00:16:00;;;;;;;19.42;2.55;;;6.40;99.90;;;;;;5071096;28;20395;-82
2023/02/04 00:18:25;;;;;;;26.67;4.30;;;6.40;99.90;;;;;;5069479;28;20546;-81
2023/02/04 00:20:51;;;;;;;13.50;2.72;;;6.30;99.90;;;;;;5087635;28;20369;-81
2023/02/04 00:23:16;;;;;;;33.38;4.90;;;6.40;99.90;;;;;;5059875;28;20034;-82
2023/02/04 00:25:42;;;;;;;28.75;4.03;;;6.30;99.90;;;;;;5074038;28;20504;-81
2023/02/04 00:28:07;;;;;;;27.83;4.10;;;6.20;99.90;;;;;;5070478;28;20025;-82
2023/02/04 00:30:33;;;;;;;30.33;4.47;;;6.30;99.90;;;;;;5052734;28;20028;-82
2023/02/04 00:32:58;;;;;;;26.42;3.88;;;6.20;99.90;;;;;;5074148;28;20048;-82
2023/02/04 00:35:24;;;;;;;23.85;4.05;;;6.30;99.90;;;;;;5070189;28;20388;-82
2023/02/04 00:37:50;;;;;;;24.88;4.35;;;6.30;99.90;;;;;;5072629;28;20410;-82
2023/02/04 00:40:15;;;;;;;20.33;3.72;;;6.30;99.90;;;;;;5058887;28;20424;-82
2023/02/04 00:42:41;;;;;;;28.63;3.70;;;6.20;99.90;;;;;;5087338;28;20032;-82
2023/02/04 00:45:08;;;;;;;13.32;2.13;;;6.10;99.90;;;;;;5085257;28;20511;-82
2023/02/04 00:47:33;;;;;;;32.67;4.82;;;6.20;99.90;;;;;;5071943;28;20024;-82
2023/02/04 00:49:59;;;;;;;35.55;4.10;;;6.20;99.90;;;;;;5074733;28;20033;-82
2023/02/04 00:52:24;;;;;;;18.58;3.63;;;6.20;99.90;;;;;;5056039;28;20024;-82
2023/02/04 00:54:52;;;;;;;39.50;4.28;;;6.20;99.90;;;;;;5053437;28;20032;-81
2023/02/04 00:57:18;;;;;;;27.75;3.75;;;6.30;99.90;;;;;;5053077;28;20056;-82
2023/02/04 00:59:43;;;;;;;24.17;3.08;;;6.20;99.90;;;;;;5053432;28;20566;-81
2023/02/04 01:02:09;;;;;;;23.58;3.53;;;6.30;99.90;;;;;;5087705;28;20403;-82
2023/02/04 01:04:34;;;;;;;27.60;4.30;;;6.20;99.90;;;;;;5089256;28;20560;-82
2023/02/04 01:07:00;;;;;;;24.23;4.13;;;6.30;99.90;;;;;;5070575;28;20439;-82
2023/02/04 01:09:25;;;;;;;30.65;4.03;;;6.30;99.90;;;;;;5085639;28;20399;-82
2023/02/04 01:11:51;;;;;;;21.73;3.90;;;6.40;99.90;;;;;;5065648;28;20047;-82
2023/02/04 01:14:16;;;;;;;26.23;6.05;;;6.20;99.90;;;;;;5057006;28;20782;-82
2023/02/04 01:16:42;;;;;;;30.13;4.50;;;6.20;99.90;;;;;;5047707;28;20036;-82
2023/02/04 01:19:07;;;;;;;18.58;3.60;;;6.20;99.90;;;;;;5074534;28;20036;-82
2023/02/04 01:21:33;;;;;;;15.88;2.88;;;6.30;99.90;;;;;;5075620;28;20024;-82
2023/02/04 01:23:58;;;;;;;30.65;4.15;;;6.30;99.90;;;;;;5056927;28;20036;-82
2023/02/04 01:26:24;;;;;;;14.82;2.45;;;6.30;99.90;;;;;;5062244;28;20028;-82
2023/02/04 01:28:49;;;;;;;26.25;3.92;;;6.20;99.90;;;;;;5063378;28;20104;-83
2023/02/04 01:31:15;;;;;;;23.63;3.33;;;6.20;99.90;;;;;;5044398;28;20028;-82
2023/02/04 01:33:41;;;;;;;20.52;4.40;;;6.30;99.90;;;;;;5040898;28;20388;-82
2023/02/04 01:36:07;;;;;;;26.33;4.78;;;6.10;99.90;;;;;;5078141;28;20032;-82
2023/02/04 01:38:32;;;;;;;28.10;3.03;;;6.20;99.90;;;;;;5081813;28;20031;-82
2023/02/04 01:40:58;;;;;;;27.17;3.85;;;6.20;99.90;;;;;;5061558;27;20479;-81
2023/02/04 01:43:23;;;;;;;30.90;3.47;;;6.20;99.90;;;;;;5065349;28;20384;-82
2023/02/04 01:45:49;;;;;;;33.95;4.35;;;6.20;99.90;;;;;;5059579;28;20111;-82
2023/02/04 01:48:19;;;;;;;24.85;5.30;;;6.20;99.90;;;;;;5053478;28;20040;-81
2023/02/04 01:50:51;;;;;;;33.45;4.85;;;6.30;99.90;;;;;;5075094;28;20044;-81
2023/02/04 01:53:21;;;;;;;29.48;4.00;;;6.20;99.90;;;;;;5066317;28;20111;-82
2023/02/04 01:55:47;;;;;;;19.30;3.78;;;6.20;99.90;;;;;;5065608;28;20036;-81
2023/02/04 01:58:13;;;;;;;30.67;4.72;;;6.20;99.90;;;;;;5069759;28;20036;-82
2023/02/04 02:00:38;;;;;;;19.65;3.33;;;6.30;99.90;;;;;;5066224;28;20024;-82
2023/02/04 02:03:04;;;;;;;24.85;3.90;;;6.30;99.90;;;;;;5066939;28;20065;-82
2023/02/04 02:05:34;;;;;;;34.50;4.57;;;6.30;99.90;;;;;;5043110;28;20035;-82
2023/02/04 02:08:00;;;;;;;27.77;4.00;;;6.30;99.90;;;;;;5053740;28;20032;-82
2023/02/04 02:10:27;;;;;;;21.27;3.13;;;6.30;99.90;;;;;;5042822;28;20050;-82
2023/02/04 02:12:54;;;;;;;26.75;6.03;;;6.30;99.90;;;;;;5059608;28;20215;-82
2023/02/04 02:15:20;;;;;;;26.52;3.85;;;6.30;99.90;;;;;;5040634;28;20032;-81
2023/02/04 02:17:45;;;;;;;24.85;4.88;;;6.30;99.90;;;;;;5032608;28;20362;-82
2023/02/04 02:20:13;;;;;;;22.27;3.05;;;6.40;99.90;;;;;;5039684;28;20025;-82
2023/02/04 02:23:00;;;;;;;18.60;3.72;;;6.40;99.90;;;;;;5056896;28;20571;-82
2023/02/04 02:25:25;;;;;;;22.27;3.92;;;6.30;99.90;;;;;;5076811;27;20040;-82
2023/02/04 02:27:51;;;;;;;28.25;6.32;;;6.30;99.90;;;;;;5035865;28;20033;-82
2023/02/04 02:30:18;;;;;;;22.60;4.25;;;6.30;99.90;;;;;;5059253;28;20070;-80
2023/02/04 02:32:44;;;;;;;23.35;5.07;;;6.30;99.90;;;;;;5060473;27;20485;-80
2023/02/04 02:35:10;;;;;;;26.77;3.50;;;6.30;99.90;;;;;;5046160;28;20043;-80
2023/02/04 02:37:36;;;;;;;34.65;4.20;;;6.40;99.90;;;;;;5062362;28;20494;-80
2023/02/04 02:40:01;;;;;;;29.23;3.97;;;6.40;99.90;;;;;;5033948;28;20040;-80
2023/02/04 02:42:27;;;;;;;34.65;4.38;;;6.40;99.90;;;;;;5067058;28;20020;-80
2023/02/04 02:44:52;;;;;;;27.38;4.57;;;6.40;99.90;;;;;;5048688;28;20107;-80
2023/02/04 02:47:20;;;;;;;26.15;3.35;;;6.50;99.90;;;;;;5040905;28;20016;-80
2023/02/04 02:49:47;;;;;;;28.48;3.97;;;6.40;99.90;;;;;;5065940;28;20116;-80
2023/02/04 02:52:13;;;;;;;27.85;4.38;;;6.40;99.90;;;;;;5051632;28;20033;-80
2023/02/04 02:54:38;;;;;;;29.70;3.80;;;6.40;99.90;;;;;;5047282;28;20090;-80
2023/02/04 02:57:11;;;;;;;29.13;4.85;;;6.40;99.90;;;;;;5039254;28;20032;-80
2023/02/04 02:59:37;;;;;;;29.15;3.67;;;6.40;99.90;;;;;;5062169;28;20062;-80
2023/02/04 03:02:04;;;;;;;24.33;4.68;;;6.40;99.90;;;;;;5040864;27;22735;-80
2023/02/04 03:04:31;;;;;;;10.60;2.67;;;6.30;99.90;;;;;;5033263;28;20032;-80
2023/02/04 03:06:56;;;;;;;27.63;3.80;;;6.40;99.90;;;;;;5062824;28;20070;-80
2023/02/04 03:09:22;;;;;;;24.20;3.55;;;6.40;99.90;;;;;;5060694;28;20503;-80
2023/02/04 03:11:48;;;;;;;35.20;4.45;;;6.40;99.90;;;;;;5064528;28;20040;-80
2023/02/04 03:14:13;;;;;;;19.95;2.47;;;6.30;99.90;;;;;;5041708;28;20118;-80
2023/02/04 03:16:39;;;;;;;29.40;3.60;;;6.40;99.90;;;;;;5058918;28;20035;-80
2023/02/04 03:19:05;;;;;;;23.48;3.30;;;6.40;99.90;;;;;;5041086;28;20100;-80
2023/02/04 03:21:31;;;;;;;26.20;3.97;;;6.30;99.90;;;;;;5034218;28;20483;-80
2023/02/04 03:23:56;;;;;;;28.73;3.45;;;6.30;99.90;;;;;;5033483;28;20025;-80
2023/02/04 03:26:23;;;;;;;19.90;3.08;;;6.30;99.90;;;;;;5058740;28;20070;-80
2023/02/04 03:28:48;;;;;;;22.23;2.85;;;6.30;99.90;;;;;;5077019;28;20032;-80
2023/02/04 03:31:14;;;;;;;25.70;3.55;;;6.30;99.90;;;;;;5061830;28;20473;-80
2023/02/04 03:33:41;;;;;;;29.33;4.25;;;6.30;99.90;;;;;;5038482;28;20037;-80
2023/02/04 03:36:07;;;;;;;20.73;3.15;;;6.40;99.90;;;;;;5035301;28;20077;-80
2023/02/04 03:38:33;;;;;;;22.17;4.05;;;6.30;99.90;;;;;;5038677;28;20480;-80
2023/02/04 03:40:58;;;;;;;25.08;3.20;;;6.30;99.90;;;;;;5052542;27;20028;-80
2023/02/04 03:43:24;;;;;;;24.20;3.65;;;6.40;99.90;;;;;;5044861;28;20052;-80
2023/02/04 03:45:49;;;;;;;29.13;4.55;;;6.40;99.90;;;;;;5053607;27;20073;-80
2023/02/04 03:48:15;;;;;;;23.02;2.92;;;6.40;99.90;;;;;;5052203;28;20081;-80
2023/02/04 03:50:41;;;;;;;31.52;4.72;;;6.40;99.90;;;;;;5048393;28;20036;-80
2023/02/04 03:53:06;;;;;;;21.50;3.28;;;6.30;99.90;;;;;;5052996;28;20029;-82
2023/02/04 03:55:32;;;;;;;20.95;4.28;;;6.30;99.90;;;;;;5057939;28;20462;-81
2023/02/04 03:57:57;;;;;;;27.88;4.03;;;6.30;99.90;;;;;;5068012;28;20048;-82
2023/02/04 04:00:23;;;;;;;19.25;2.67;;;6.30;99.90;;;;;;5052496;28;20122;-81
2023/02/04 04:02:49;;;;;;;15.73;2.78;;;6.40;99.90;;;;;;5063559;28;20110;-82
2023/02/04 04:05:14;;;;;;;28.67;4.30;;;6.40;99.90;;;;;;5081909;28;20031;-82
2023/02/04 04:07:40;;;;;;;22.35;3.65;;;6.40;99.90;;;;;;5056033;28;20111;-82
2023/02/04 04:10:06;;;;;;;30.08;4.63;;;6.30;99.90;;;;;;5063825;28;20054;-81
2023/02/04 04:12:31;;;;;;;26.05;3.55;;;6.30;99.90;;;;;;5064805;28;20107;-82
2023/02/04 04:14:57;;;;;;;10.98;2.03;;;6.30;99.90;;;;;;5079923;28;20127;-82
2023/02/04 04:17:22;;;;;;;32.65;4.45;;;6.30;99.90;;;;;;5060804;28;20036;-82
2023/02/04 04:19:48;;;;;;;29.30;4.13;;;6.30;99.90;;;;;;5032778;28;20032;-82
2023/02/04 04:22:14;;;;;;;32.78;4.20;;;6.30;99.90;;;;;;5050107;28;20068;-81
2023/02/04 04:24:39;;;;;;;28.92;3.50;;;6.40;99.90;;;;;;5066021;28;20024;-82
2023/02/04 04:27:05;;;;;;;24.15;4.07;;;6.30;99.90;;;;;;5047965;28;20044;-82
2023/02/04 04:29:30;;;;;;;33.90;5.30;;;6.30;99.90;;;;;;5071846;28;20028;-81
2023/02/04 04:31:56;;;;;;;23.60;3.70;;;6.30;99.90;;;;;;5059164;28;20043;-82
2023/02/04 04:34:21;;;;;;;31.90;3.53;;;6.30;99.90;;;;;;5076132;27;20039;-81
2023/02/04 04:36:47;;;;;;;30.45;5.03;;;6.30;99.90;;;;;;5066899;28;20028;-82
2023/02/04 04:39:12;;;;;;;23.58;3.80;;;6.20;99.90;;;;;;5062656;28;20035;-82
2023/02/04 04:41:38;;;;;;;25.88;3.33;;;6.30;99.90;;;;;;5074514;28;20024;-81
2023/02/04 04:44:03;;;;;;;32.72;4.65;;;6.30;99.90;;;;;;5065431;28;20369;-81
2023/02/04 04:46:29;;;;;;;30.45;3.38;;;6.30;99.90;;;;;;5069428;28;20625;-81
2023/02/04 04:48:54;;;;;;;16.92;2.65;;;6.30;99.90;;;;;;5061548;28;20029;-82
2023/02/04 04:51:20;;;;;;;26.15;4.45;;;6.30;99.90;;;;;;5058258;28;20024;-82
2023/02/04 04:53:45;;;;;;;22.25;3.35;;;6.20;99.90;;;;;;5076667;28;20028;-82
2023/02/04 04:56:11;;;;;;;29.17;4.03;;;6.30;99.90;;;;;;5065279;28;20107;-82
2023/02/04 04:58:36;;;;;;;31.58;5.35;;;6.30;99.90;;;;;;5063097;28;20032;-82
2023/02/04 05:01:02;;;;;;;31.15;5.82;;;6.20;99.90;;;;;;5041196;28;20032;-82
2023/02/04 05:03:28;;;;;;;28.15;4.20;;;6.30;99.90;;;;;;5065747;28;20035;-81
2023/02/04 05:05:53;;;;;;;29.20;5.15;;;6.20;99.90;;;;;;5038779;28;20039;-82
2023/02/04 05:08:19;;;;;;;32.10;4.78;;;6.20;99.90;;;;;;5070838;28;20146;-81
2023/02/04 05:10:45;;;;;;;26.85;3.78;;;6.20;99.90;;;;;;5048648;28;20039;-81
2023/02/04 05:13:11;;;;;;;31.98;4.10;;;6.10;99.90;;;;;;5055445;28;20036;-81
2023/02/04 05:15:36;;;;;;;29.70;4.47;;;6.20;99.90;;;;;;5066929;28;20028;-82
2023/02/04 05:18:02;;;;;;;37.05;5.60;;;6.10;99.90;;;;;;5048335;28;20040;-82
2023/02/04 05:20:28;;;;;;;33.17;4.80;;;6.20;99.90;;;;;;5066769;28;20056;-82
2023/02/04 05:22:54;;;;;;;44.53;5.30;;;6.20;99.90;;;;;;5064511;28;20062;-82
2023/02/04 05:25:21;;;;;;;27.42;4.13;;;6.10;99.90;;;;;;5076129;28;20492;-81
2023/02/04 05:27:47;;;;;;;34.58;6.28;;;6.10;99.90;;;;;;5061660;28;20518;-81
2023/02/04 05:30:13;;;;;;;32.03;4.05;;;6.10;99.90;;;;;;5060919;28;20133;-81
2023/02/04 05:32:38;;;;;;;28.35;5.22;;;6.10;99.90;;;;;;5062149;28;20594;-82
2023/02/04 05:35:04;;;;;;;35.78;5.65;;;6.20;99.90;;;;;;5057057;28;20093;-81
2023/02/04 05:37:30;;;;;;;24.80;4.18;;;6.20;99.90;;;;;;5062018;28;20043;-82
2023/02/04 05:39:56;;;;;;;37.58;3.88;;;6.10;99.90;;;;;;5039826;28;20392;-81
2023/02/04 05:42:22;;;;;;;30.20;4.32;;;6.10;99.90;;;;;;5054843;28;20050;-81
2023/02/04 05:44:47;;;;;;;26.52;3.55;;;6.10;99.90;;;;;;5085719;28;20128;-81
2023/02/04 05:47:13;;;;;;;29.10;3.90;;;6.20;99.90;;;;;;5054047;28;20039;-82
2023/02/04 05:49:39;;;;;;;31.15;4.38;;;6.10;99.90;;;;;;5030497;28;20032;-81
2023/02/04 05:52:05;;;;;;;23.55;2.95;;;6.10;99.90;;;;;;5051778;28;20052;-81
2023/02/04 05:54:30;;;;;;;18.90;3.75;;;6.20;99.90;;;;;;5050533;28;20035;-82
2023/02/04 05:56:56;;;;;;;30.70;4.03;;;6.10;99.90;;;;;;5046936;28;20412;-81
2023/02/04 05:59:21;;;;;;;21.88;3.38;;;6.10;99.90;;;;;;5064531;28;20020;-81
2023/02/04 06:01:47;;;;;;;29.77;3.10;;;6.10;99.90;;;;;;5048375;28;20024;-81
2023/02/04 06:04:15;;;;;;;29.15;4.20;;;6.10;99.90;;;;;;5043207;28;20038;-81
2023/02/04 06:06:41;;;;;;;34.75;4.03;;;6.10;99.90;;;;;;5068393;28;20062;-82
2023/02/04 06:09:07;;;;;;;29.08;4.03;;;6.10;99.90;;;;;;5042484;28;20075;-82
2023/02/04 06:11:32;;;;;;;29.25;4.07;;;6.10;99.90;;;;;;5065980;28;20055;-82
2023/02/04 06:13:58;;;;;;;27.13;3.88;;;6.20;99.90;;;;;;5053246;28;20074;-82
2023/02/04 06:16:23;;;;;;;20.00;3.60;;;6.10;99.90;;;;;;5069563;28;20555;-81
2023/02/04 06:18:49;;;;;;;34.35;4.57;;;6.10;99.90;;;;;;5069752;28;20024;-81
2023/02/04 06:21:14;;;;;;;30.65;4.30;;;6.10;99.90;;;;;;5044448;28;20074;-81
2023/02/04 06:23:40;;;;;;;31.83;4.40;;;6.10;99.90;;;;;;5081856;28;20400;-82
2023/02/04 06:26:05;;;;;;;26.95;3.72;;;6.20;99.90;;;;;;5050243;28;20112;-82
2023/02/04 06:28:31;;;;;;;21.33;2.40;;;6.20;99.90;;;;;;5083447;28;20024;-82
2023/02/04 06:30:57;;;;;;;31.00;3.80;;;6.30;99.90;;;;;;5071915;28;20024;-82
2023/02/04 06:33:22;;;;;;;29.17;4.30;;;6.20;99.90;;;;;;5069723;28;20050;-82
2023/02/04 06:35:48;;;;;;;30.15;4.53;;;6.20;99.90;;;;;;5088153;28;20103;-82
2023/02/04 06:38:14;;;;;;;38.65;4.60;;;6.20;99.90;;;;;;5054266;28;20032;-82
2023/02/04 06:40:39;;;;;;;28.30;3.85;;;6.20;99.90;;;;;;5039730;28;20090;-82
2023/02/04 06:43:05;;;;;;;28.85;4.25;;;6.20;99.90;;;;;;5043018;28;20025;-82
2023/02/04 06:45:30;;;;;;;34.28;5.28;;;6.30;99.90;;;;;;5075398;28;20035;-82
2023/02/04 06:47:56;;;;;;;21.38;2.88;;;6.20;99.90;;;;;;5059506;28;20034;-82
2023/02/04 06:50:22;;;;;;;36.17;4.63;;;6.20;99.90;;;;;;5051239;28;20039;-82
2023/02/04 06:52:48;;;;;;;30.60;4.28;;;6.20;99.90;;;;;;5062568;28;20033;-82
2023/02/04 06:55:14;;;;;;;27.65;3.75;;;6.20;99.90;;;;;;5051611;28;20081;-82
2023/02/04 06:57:40;;;;;;;21.77;3.90;;;6.20;99.90;;;;;;5054064;28;20565;-82
2023/02/04 07:00:06;;;;;;;24.88;4.03;;;6.20;99.90;;;;;;5042903;28;20097;-82
2023/02/04 07:02:32;;;;;;;31.70;4.88;;;6.20;99.90;;;;;;5038879;28;20487;-82
2023/02/04 07:04:59;;;;;;;33.30;5.38;;;6.20;99.90;;;;;;5057232;28;20050;-82
2023/02/04 07:07:26;;;;;;;33.38;5.38;;;6.20;99.90;;;;;;5050242;28;20028;-82
2023/02/04 07:09:52;;;;;;;33.80;5.70;;;6.10;99.90;;;;;;5057080;28;20035;-82
2023/02/04 07:12:17;;;;;;;35.75;6.05;;;6.10;99.90;;;;;;5045585;28;20028;-82
2023/02/04 07:14:43;;;;;;;33.28;4.88;;;6.10;99.90;;;;;;5046243;28;20065;-82
2023/02/04 07:17:08;;;;;;;38.03;5.20;;;6.10;99.90;;;;;;5038362;28;20034;-82
2023/02/04 07:19:35;;;;;;;35.65;4.70;;;6.10;99.90;;;;;;5066060;28;20036;-82
2023/02/04 07:22:01;;;;;;;33.75;6.13;;;6.10;99.90;;;;;;5048540;28;20614;-81
2023/02/04 07:24:27;;;;;;;40.83;5.32;;;6.10;99.90;;;;;;5049857;28;20556;-81
2023/02/04 07:26:52;;;;;;;28.92;4.90;;;6.10;99.90;;;;;;5064534;28;20045;-82
2023/02/04 07:29:18;;;;;;;45.17;6.90;;;6.10;99.90;;;;;;5076343;28;20494;-82
2023/02/04 07:31:44;;;;;;;33.50;6.70;;;6.10;99.90;;;;;;5039853;28;20035;-82
2023/02/04 07:34:14;;;;;;;34.30;4.60;;;6.10;99.90;;;;;;5054350;28;20111;-82
2023/02/04 07:36:40;;;;;;;43.50;5.07;;;6.10;99.90;;;;;;5062270;28;20024;-82
2023/02/04 07:39:05;;;;;;;27.90;4.55;;;6.10;99.90;;;;;;5069812;28;20051;-82
2023/02/04 07:41:31;;;;;;;40.05;4.68;;;6.10;99.90;;;;;;5048563;28;20459;-82
2023/02/04 07:43:57;;;;;;;23.95;5.57;;;6.10;99.90;;;;;;5048178;28;20044;-82
2023/02/04 07:46:22;;;;;;;39.63;5.43;;;6.10;99.90;;;;;;5074150;28;20042;-82
2023/02/04 07:48:48;;;;;;;34.80;5.07;;;6.10;99.90;;;;;;5053053;28;20043;-82
2023/02/04 07:51:13;;;;;;;29.48;5.15;;;6.20;99.90;;;;;;5079826;27;20039;-82
2023/02/04 07:53:39;;;;;;;41.08;5.32;;;6.20;99.90;;;;;;5079521;28;20656;-82
2023/02/04 07:56:05;;;;;;;40.90;4.90;;;6.20;99.90;;;;;;5067428;28;20073;-82
2023/02/04 07:58:30;;;;;;;26.27;4.13;;;6.20;99.90;;;;;;5073911;27;20077;-82
2023/02/04 08:00:56;;;;;;;30.23;7.65;;;6.20;99.90;;;;;;5065843;28;20438;-82
2023/02/04 08:03:21;;;;;;;41.92;5.63;;;6.30;99.90;;;;;;5077020;28;20487;-82
2023/02/04 08:05:47;;;;;;;40.72;6.03;;;6.30;99.90;;;;;;5075369;27;20041;-82
2023/02/04 08:08:12;;;;;;;30.10;4.60;;;6.30;99.90;;;;;;5038188;28;20107;-82
2023/02/04 08:10:38;;;;;;;43.47;5.10;;;6.30;99.90;;;;;;5057135;28;20119;-82
2023/02/04 08:13:03;;;;;;;34.67;5.07;;;6.40;99.90;;;;;;5075070;28;20093;-82
2023/02/04 08:15:29;;;;;;;28.30;3.92;;;6.40;99.90;;;;;;5059800;28;20059;-81
2023/02/04 08:17:55;;;;;;;11.38;2.35;;;6.40;99.90;;;;;;5062723;28;20025;-81
2023/02/04 08:20:20;;;;;;;34.13;5.10;;;6.50;99.90;;;;;;5066959;28;20035;-81
2023/02/04 08:22:46;;;;;;;35.88;5.18;;;6.50;99.90;;;;;;5059148;28;20036;-80
2023/02/04 08:25:11;;;;;;;27.83;4.75;;;6.60;99.90;;;;;;5038757;28;20503;-81
2023/02/04 08:27:37;;;;;;;32.70;4.63;;;6.60;99.90;;;;;;5047388;28;20554;-80
2023/02/04 08:30:03;;;;;;;27.25;4.55;;;6.60;99.90;;;;;;5063170;28;20568;-81
2023/02/04 08:32:30;;;;;;;31.17;4.20;;;6.70;99.90;;;;;;5087743;28;20036;-81
2023/02/04 08:34:58;;;;;;;36.28;5.43;;;6.70;99.90;;;;;;5064230;28;20024;-79
2023/02/04 08:37:24;;;;;;;24.00;4.13;;;6.80;99.90;;;;;;5067323;28;20028;-80
2023/02/04 08:39:50;;;;;;;31.63;4.40;;;6.90;99.90;;;;;;5058670;28;20037;-81
2023/02/04 08:42:15;;;;;;;15.45;3.40;;;7.00;99.90;;;;;;5075160;28;20081;-80
2023/02/04 08:44:41;;;;;;;45.95;7.85;;;6.90;99.90;;;;;;5058674;28;20029;-80
2023/02/04 08:47:07;;;;;;;20.77;3.97;;;6.90;99.90;;;;;;5071606;28;20152;-81
2023/02/04 08:49:32;;;;;;;29.17;5.43;;;6.90;99.90;;;;;;5035981;28;20096;-80
2023/02/04 08:51:58;;;;;;;31.65;6.35;;;7.00;99.90;;;;;;5042150;28;20032;-80
2023/02/04 08:54:25;;;;;;;39.47;5.80;;;7.10;99.90;;;;;;5077784;28;20063;-80
2023/02/04 08:56:51;;;;;;;30.08;5.30;;;7.10;99.90;;;;;;5011616;28;20028;-80
2023/02/04 08:59:16;;;;;;;33.42;5.68;;;7.10;99.90;;;;;;5038714;28;20032;-81
2023/02/04 09:01:42;;;;;;;43.30;6.55;;;7.30;99.90;;;;;;5077746;28;20035;-81
2023/02/04 09:04:07;;;;;;;32.97;5.85;;;7.30;99.90;;;;;;5055452;28;20028;-81
2023/02/04 09:06:33;;;;;;;23.10;4.53;;;7.40;99.90;;;;;;5060934;28;20047;-81
2023/02/04 09:08:58;;;;;;;37.25;7.25;;;7.40;99.90;;;;;;5041317;28;20048;-81
2023/02/04 09:11:24;;;;;;;32.42;6.20;;;7.50;99.90;;;;;;5079895;28;20039;-81
2023/02/04 09:13:50;;;;;;;37.65;6.32;;;7.60;99.90;;;;;;5075019;28;20107;-81
2023/02/04 09:16:17;;;;;;;23.35;6.50;;;7.60;99.90;;;;;;5073080;28;20107;-81
2023/02/04 09:18:42;;;;;;;44.22;9.48;;;7.70;99.90;;;;;;5073498;28;20035;-81
2023/02/04 09:21:08;;;;;;;33.20;7.40;;;7.80;99.90;;;;;;5065196;28;20036;-81
2023/02/04 09:23:33;;;;;;;31.92;5.82;;;7.80;99.90;;;;;;5070677;28;20046;-81
2023/02/04 09:26:00;;;;;;;17.92;4.93;;;7.90;99.90;;;;;;5047576;28;20033;-82
2023/02/04 09:28:25;;;;;;;44.22;7.72;;;8.00;99.90;;;;;;5063794;28;20027;-81
2023/02/04 09:30:51;;;;;;;39.03;6.10;;;8.10;99.90;;;;;;5040606;28;20027;-81
2023/02/04 09:33:16;;;;;;;33.78;7.07;;;8.20;99.90;;;;;;5058747;28;20051;-81
2023/02/04 09:35:42;;;;;;;40.17;7.97;;;8.30;99.90;;;;;;5061122;28;20032;-81
2023/02/04 09:38:08;;;;;;;33.22;7.32;;;8.40;99.90;;;;;;5060563;28;20130;-81
2023/02/04 09:40:34;;;;;;;32.78;5.35;;;8.40;99.90;;;;;;5036648;28;20028;-81
2023/02/04 09:43:03;;;;;;;24.98;5.07;;;8.50;99.90;;;;;;5086023;28;20043;-79
2023/02/04 09:45:31;;;;;;;32.45;5.95;;;8.60;99.90;;;;;;5057036;28;20037;-80
2023/02/04 09:48:01;;;;;;;35.10;6.70;;;8.70;99.90;;;;;;5071445;28;20469;-80
2023/02/04 09:50:27;;;;;;;35.17;6.53;;;8.80;99.90;;;;;;5062938;28;20051;-80
2023/02/04 09:52:54;;;;;;;44.38;7.82;;;8.90;99.90;;;;;;5045316;28;20052;-81
2023/02/04 09:55:22;;;;;;;22.40;4.60;;;8.90;99.90;;;;;;5065015;28;20037;-81
2023/02/04 09:57:47;;;;;;;35.83;6.82;;;9.10;99.90;;;;;;5053216;28;20222;-81
2023/02/04 10:00:21;;;;;;;18.52;4.93;;;9.10;99.90;;;;;;5026575;28;20114;-81
2023/02/04 10:02:46;;;;;;;32.85;6.63;;;9.20;99.90;;;;;;5008761;28;20032;-81
2023/02/04 10:05:16;;;;;;;28.98;5.05;;;9.30;99.90;;;;;;5048702;28;20036;-81
2023/02/04 10:07:42;;;;;;;28.55;5.53;;;9.50;99.90;;;;;;5039041;28;20036;-81
2023/02/04 10:10:22;;;;;;;28.55;5.97;;;9.60;99.90;;;;;;5060791;28;20044;-81
2023/02/04 10:12:49;;;;;;;26.77;5.78;;;9.70;99.90;;;;;;5064173;28;20514;-81
2023/02/04 10:15:15;;;;;;;48.72;6.43;;;9.70;99.90;;;;;;5042909;28;20077;-81
2023/02/04 10:17:41;;;;;;;33.67;6.07;;;9.70;99.90;;;;;;5058887;28;20062;-81
2023/02/04 10:20:20;;;;;;;27.15;6.15;;;9.80;99.90;;;;;;5030964;28;20037;-82
2023/02/04 10:22:46;;;;;;;28.08;6.82;;;9.90;99.90;;;;;;5058033;28;20047;-81
2023/02/04 10:25:13;;;;;;;28.35;5.32;;;9.90;99.90;;;;;;5013765;28;21058;-81
2023/02/04 10:27:52;;;;;;;35.95;6.72;;;10.00;99.90;;;;;;4944056;28;20035;-81
2023/02/04 10:30:26;;;;;;;39.15;7.10;;;10.10;99.90;;;;;;4925560;28;20462;-80
2023/02/04 10:32:51;;;;;;;34.17;7.18;;;10.20;99.90;;;;;;5054695;28;20698;-82
2023/02/04 10:35:18;;;;;;;24.08;6.70;;;10.30;99.90;;;;;;5074055;28;20029;-81
2023/02/04 10:37:44;;;;;;;34.60;7.93;;;10.30;99.90;;;;;;5079392;27;20039;-81
2023/02/04 10:40:25;;;;;;;34.50;8.63;;;10.50;99.90;;;;;;5068153;28;20042;-83
2023/02/04 10:42:52;;;;;;;40.47;7.85;;;10.50;99.90;;;;;;5071784;28;20105;-82
2023/02/04 10:45:24;;;;;;;35.53;9.15;;;10.60;99.90;;;;;;5061328;28;20032;-82
2023/02/04 10:47:51;;;;;;;35.05;9.10;;;10.70;99.90;;;;;;5066243;28;20028;-82
2023/02/04 10:50:17;;;;;;;23.95;7.60;;;10.70;99.90;;;;;;5059391;28;20120;-82
2023/02/04 10:52:48;;;;;;;48.88;11.80;;;10.70;99.90;;;;;;5037620;27;20201;-82
2023/02/04 10:55:18;;;;;;;30.23;9.27;;;10.80;99.90;;;;;;5030380;28;20035;-82
2023/02/04 10:57:50;;;;;;;39.85;10.15;;;10.90;99.90;;;;;;5050549;27;20047;-83
2023/02/04 11:00:22;;;;;;;31.98;8.55;;;10.90;99.90;;;;;;5043968;28;20545;-82
2023/02/04 11:02:56;;;;;;;38.20;8.88;;;10.90;99.90;;;;;;5080225;28;20025;-82
2023/02/04 11:05:24;;;;;;;36.05;9.38;;;11.10;99.90;;;;;;5071177;28;20559;-81
2023/02/04 11:07:49;;;;;;;47.03;8.25;;;11.20;99.90;;;;;;5045279;28;20048;-82
2023/02/04 11:10:18;;;;;;;26.55;7.72;;;11.10;99.90;;;;;;5053565;28;20032;-82
2023/02/04 11:13:04;;;;;;;25.50;8.07;;;11.10;99.90;;;;;;5056325;28;20036;-82
2023/02/04 11:15:49;;;;;;;40.03;9.87;;;11.10;99.90;;;;;;5062482;28;20028;-81
2023/02/04 11:18:20;;;;;;;31.98;10.05;;;11.20;99.90;;;;;;5059996;28;20032;-82
2023/02/04 11:20:46;;;;;;;25.85;9.35;;;11.40;99.90;;;;;;5075390;27;20398;-82
2023/02/04 11:23:31;;;;;;;35.42;11.18;;;11.30;99.90;;;;;;5045870;28;20450;-82
2023/02/04 11:26:08;;;;;;;28.80;9.65;;;11.30;99.90;;;;;;5079522;28;20034;-82
2023/02/04 11:28:39;;;;;;;38.70;10.77;;;11.30;99.90;;;;;;5081031;27;20115;-81
2023/02/04 11:31:27;;;;;;;36.85;11.05;;;11.50;99.90;;;;;;5075802;28;20634;-82
2023/02/04 11:34:14;;;;;;;44.20;10.07;;;11.50;99.90;;;;;;5073767;28;20029;-82
2023/02/04 11:36:56;;;;;;;37.22;11.50;;;11.50;99.90;;;;;;5083241;27;20449;-82
2023/02/04 11:39:21;;;;;;;24.80;10.07;;;11.60;99.90;;;;;;5077616;28;20109;-82
2023/02/04 11:41:47;;;;;;;45.17;13.02;;;11.60;99.90;;;;;;5060674;28;20021;-82
2023/02/04 11:44:13;;;;;;;35.10;10.27;;;11.60;99.90;;;;;;5041349;28;20074;-82
2023/02/04 11:46:39;;;;;;;18.73;6.50;;;11.70;99.90;;;;;;5071645;28;20028;-82
2023/02/04 11:49:12;;;;;;;30.60;9.45;;;11.90;99.90;;;;;;5070343;28;20030;-82
2023/02/04 11:51:38;;;;;;;30.65;8.75;;;11.90;99.90;;;;;;5089288;28;20028;-82
2023/02/04 11:54:03;;;;;;;26.48;8.05;;;11.90;99.90;;;;;;5056451;28;20700;-81
2023/02/04 11:56:29;;;;;;;31.00;9.10;;;11.90;99.90;;;;;;5084825;28;21904;-82
2023/02/04 11:58:56;;;;;;;23.23;9.25;;;11.90;99.90;;;;;;5057212;28;20433;-82
2023/02/04 12:01:30;;;;;;;28.77;9.73;;;12.00;99.90;;;;;;5057403;28;20035;-82
2023/02/04 12:04:06;;;;;;;29.67;9.52;;;12.10;99.90;;;;;;5073272;28;20020;-82
2023/02/04 12:06:33;;;;;;;35.08;9.52;;;12.10;99.90;;;;;;4723108;28;10000156;-82
2023/02/04 12:09:23;;;;;;;35.17;12.55;;;12.10;99.90;;;;;;5068925;28;20450;-81
2023/02/04 12:11:56;;;;;;;30.27;8.82;;;12.20;99.90;;;;;;5071916;28;20522;-80
2023/02/04 12:14:31;;;;;;;22.17;7.55;;;12.30;99.90;;;;;;5063648;28;20056;-80
2023/02/04 12:16:57;;;;;;;18.52;8.23;;;12.20;99.90;;;;;;5058267;28;20475;-80
2023/02/04 12:19:22;;;;;;;36.47;10.32;;;12.20;99.90;;;;;;5072533;28;20042;-81
2023/02/04 12:21:48;;;;;;;27.27;9.00;;;12.30;99.90;;;;;;5069817;28;20115;-81
2023/02/04 12:24:13;;;;;;;32.55;11.23;;;12.30;99.90;;;;;;5072863;28;20750;-80
2023/02/04 12:26:39;;;;;;;27.45;10.30;;;12.30;99.90;;;;;;5072014;28;20031;-80
2023/02/04 12:29:05;;;;;;;39.17;12.27;;;12.30;99.90;;;;;;5070740;28;20101;-81
2023/02/04 12:31:31;;;;;;;32.70;10.70;;;12.20;99.90;;;;;;5071993;28;20032;-81
2023/02/04 12:33:56;;;;;;;30.35;10.23;;;12.30;99.90;;;;;;5074387;28;20144;-81
2023/02/04 12:36:22;;;;;;;33.38;9.45;;;12.30;99.90;;;;;;5069222;28;20024;-81
2023/02/04 12:38:48;;;;;;;14.98;6.97;;;12.20;99.90;;;;;;5044084;28;20016;-82
2023/02/04 12:41:13;;;;;;;18.92;8.43;;;12.20;99.90;;;;;;5081088;28;20425;-81
2023/02/04 12:43:39;;;;;;;22.35;9.32;;;12.30;99.90;;;;;;5054974;28;20031;-81